Sunday, November 19, 2017, 8:58 PM EST
Back to Local

KSWF, Newburgh / Stewart

Location: New Windsor, NY, United States Lat: 41.5
Local Time: 8:58 PM EST ( 1:58 GMT) Lon: -74.1
Time Zone: US/Eastern Elev: 492 ft

Show me the last for .
Show Coded

Time T Td Feel RH Dir Speed Gust Alt SLP Vis Weather Sky Remarks
2017-11-19 19:45 37 28 27 69 290° 12 21 29.70 - 10 SCT050 None
2017-11-19 18:45 39 27 29 60 300° 12 21 29.66 - 10 SCT050 None
2017-11-19 17:45 41 27 31 56 300° 14 25 29.64 - 10 BKN040 None
2017-11-19 16:45 41 28 29 60 300° 20 32 29.62 - 10 BKN040 None
2017-11-19 15:45 41 30 30 65 300° 18 28 29.61 - 20 BKN040 None
2017-11-19 14:45 41 28 29 60 300° 25 35 29.56 - 20 BKN035 None
2017-11-19 13:45 43 32 32 65 290° 21 32 29.54 - 20 BKN035 None
2017-11-19 12:45 43 32 32 65 300° 21 35 30.51 - 15 BKN035 None
2017-11-19 11:45 43 34 31 70 300° 23 40 29.48 - 15 BKN035 None
2017-11-19 10:45 45 34 34 65 320° 30 37 29.45 - 15 BKN030 BKN040 Pressure rising rapidly
2017-11-19 09:45 45 37 33 75 310° 26 46 29.37 - 15 BKN025 BKN035 Pressure rising rapidly
2017-11-19 08:45 48 41 38 76 280° 32 47 29.30 - 15 BKN025 BKN050 Pressure rising rapidly
2017-11-19 07:45 55 50 - 82 260° 21 40 29.20 - 15 BKN020 BKN025 OVC050 None
2017-11-19 06:45 57 55 - 93 240° 14 - 29.17 - 10 BKN025 BKN030 OVC060 None
2017-11-19 05:45 55 55 - 100 220° 9 - 29.16 - 10 BKN020 OVC030 None
2017-11-19 03:45 52 50 - 93 - Calm - 29.23 - 10 BKN020 OVC025 None
2017-11-19 02:45 46 46 - 100 - Calm - 29.29 - 10 BKN020 OVC025 None
2017-11-19 01:45 50 48 - 93 - Calm - 29.31 - 10 SCT030 OVC070 None
2017-11-19 00:45 48 46 - 93 - Calm - 29.35 - 10 OVC060 None
2017-11-18 23:45 48 45 - 87 - Calm - 29.40 - 10 SCT040 OVC080 None
2017-11-18 22:45 46 45 44 93 Variable 5 - 29.44 - 10 SCT040 OVC080 None
2017-11-18 21:45 45 43 41 93 Variable 6 - 29.49 - 10 SCT040 OVC080 None

Support USWX by starting your Amazon purchase here.